Terminal Aerodrome Forecast
Issued by NWS

Home | Current Version | Previous Version | Text Only | Print | Product List | Glossary On
Versions: 1 2 3 4 5 6 7 8 9 10 11 12 13 14 15 16 17 18 19 20 21 22 23 24 25 26 27 28
000
FTUS46 KSEW 090905 AAC
TAFSEA
TAF AMD
KSEA 090905Z 0909/1012 12008KT 3SM -SN SCT015 OVC025
      TEMPO 0909/0912 1 1/2SM -SN
     FM091500 14008KT 5SM -RASN BR BKN015 OVC030
     FM091800 16008KT 5SM -RA BR BKN015 OVC030
     FM100600 18011KT P6SM -SHRA BKN020 OVC040
     FM100900 20011KT P6SM BKN025 OVC040 PROB30 1009/1012 -SHRA=

USA.gov is the U.S. government's official web portal to all federal, state and local government web resources and services.